Time;durP1;ratioP1;P1;durP2;ratioP2;P2;SDS_P1;SDS_P2;PMS_P1;PMS_P2;Temp;Humidity;BMP_temperature;BMP_pressure;BME280_temperature;BME280_humidity;BME280_pressure;Samples;Min_cycle;Max_cycle;Signal;HPM_P1;HPM_P2
2022/08/29 00:01:08;;;;;;;15.90;11.30;;;19.70;99.90;;;;;;5031138;28;20527;-66
2022/08/29 00:03:35;;;;;;;13.60;12.20;;;19.70;99.90;;;;;;5031079;28;20524;-66
2022/08/29 00:06:01;;;;;;;12.17;11.07;;;19.70;99.90;;;;;;5031148;28;20195;-67
2022/08/29 00:08:27;;;;;;;13.27;11.47;;;19.70;99.90;;;;;;5030807;28;20926;-66
2022/08/29 00:10:54;;;;;;;14.00;12.60;;;19.60;99.90;;;;;;5031061;28;20402;-66
2022/08/29 00:13:20;;;;;;;15.67;12.10;;;19.60;99.90;;;;;;5030919;28;20172;-66
2022/08/29 00:15:46;;;;;;;14.57;13.03;;;19.50;99.90;;;;;;5030966;28;20512;-67
2022/08/29 00:18:14;;;;;;;12.83;11.63;;;19.50;99.90;;;;;;5030698;28;20882;-66
2022/08/29 00:20:43;;;;;;;13.00;10.70;;;19.50;99.90;;;;;;5030996;28;20171;-67
2022/08/29 00:23:09;;;;;;;13.07;11.77;;;19.40;99.90;;;;;;5030693;28;20811;-66
2022/08/29 00:25:36;;;;;;;15.47;11.53;;;19.30;1.00;;;;;;5030825;28;20542;-66
2022/08/29 00:28:02;;;;;;;14.60;12.40;;;19.20;1.00;;;;;;5030532;28;20898;-67
2022/08/29 00:30:28;;;;;;;15.20;13.33;;;19.30;1.00;;;;;;5030530;28;20410;-66
2022/08/29 00:32:54;;;;;;;12.87;11.57;;;19.40;1.00;;;;;;5030736;28;20748;-66
2022/08/29 00:35:23;;;;;;;12.80;11.60;;;19.40;99.90;;;;;;5030720;28;20579;-66
2022/08/29 00:37:50;;;;;;;16.57;11.77;;;19.40;1.00;;;;;;5030570;28;20214;-66
2022/08/29 00:40:23;;;;;;;18.60;13.20;;;19.40;1.00;;;;;;5030442;28;20433;-67
2022/08/29 00:42:49;;;;;;;18.37;11.40;;;19.40;99.90;;;;;;5030831;28;21467;-65
2022/08/29 00:45:16;;;;;;;13.67;12.37;;;19.40;99.90;;;;;;5030551;28;20518;-65
2022/08/29 00:47:53;;;;;;;12.73;10.70;;;19.40;99.90;;;;;;5029126;28;20172;-66
2022/08/29 00:50:37;;;;;;;13.20;11.80;;;19.40;37.70;;;;;;5030631;28;20459;-66
2022/08/29 00:53:07;;;;;;;12.87;11.73;;;19.30;99.90;;;;;;5030540;28;20563;-65
2022/08/29 00:55:34;;;;;;;12.20;10.93;;;19.30;99.90;;;;;;5030564;28;20438;-65
2022/08/29 00:58:08;;;;;;;15.40;12.27;;;19.30;99.90;;;;;;5030413;28;20406;-65
2022/08/29 01:00:36;;;;;;;16.80;11.90;;;19.30;32.00;;;;;;5030590;28;20442;-65
2022/08/29 01:03:04;;;;;;;23.10;12.37;;;19.20;99.90;;;;;;5030913;28;20508;-66
2022/08/29 01:05:31;;;;;;;18.73;12.27;;;19.20;93.00;;;;;;5034727;28;20456;-65
2022/08/29 01:07:57;;;;;;;12.40;10.80;;;19.20;99.90;;;;;;5034218;28;20864;-65
2022/08/29 01:13:08;;;;;;;11.13;10.03;;;19.10;99.90;;;;;;5034347;28;20409;-65
2022/08/29 01:15:35;;;;;;;11.23;10.13;;;19.10;99.90;;;;;;5034326;28;20438;-65
2022/08/29 01:18:02;;;;;;;15.30;12.53;;;19.10;63.70;;;;;;5033962;28;20417;-66
2022/08/29 01:20:49;;;;;;;15.37;11.90;;;19.10;1.00;;;;;;5033974;28;20406;-67
2022/08/29 01:23:20;;;;;;;14.17;12.13;;;19.00;1.00;;;;;;5034211;28;20457;-66
2022/08/29 01:25:50;;;;;;;13.73;12.33;;;19.00;99.90;;;;;;5036018;28;20444;-66
2022/08/29 01:28:21;;;;;;;11.57;10.40;;;18.90;99.90;;;;;;5035086;28;20440;-66
2022/08/29 01:31:19;;;;;;;20.00;11.60;;;19.00;65.30;;;;;;5034749;28;20403;-65
2022/08/29 01:33:56;;;;;;;14.47;12.13;;;19.00;32.60;;;;;;5030674;28;20418;-65
2022/08/29 01:36:31;;;;;;;13.20;11.67;;;19.00;1.00;;;;;;5042391;28;20463;-66
2022/08/29 01:38:57;;;;;;;13.20;12.00;;;19.00;1.00;;;;;;5042346;28;20410;-66
2022/08/29 01:41:23;;;;;;;13.77;12.20;;;18.90;1.00;;;;;;5039609;28;20407;-66
2022/08/29 01:43:52;;;;;;;14.30;13.07;;;18.90;1.00;;;;;;5033619;28;20966;-66
2022/08/29 01:46:23;;;;;;;14.47;12.20;;;18.90;1.00;;;;;;5033811;28;20179;-64
2022/08/29 01:48:49;;;;;;;15.30;12.20;;;18.90;1.00;;;;;;5033214;28;20947;-65
2022/08/29 01:51:16;;;;;;;16.50;13.33;;;18.90;1.00;;;;;;5033677;28;20403;-65
2022/08/29 01:53:42;;;;;;;14.83;13.37;;;18.90;1.00;;;;;;5033550;28;20228;-66
2022/08/29 01:56:11;;;;;;;17.73;12.83;;;18.90;1.00;;;;;;5045239;22;20483;-68
2022/08/29 01:58:37;;;;;;;26.23;13.07;;;18.80;1.00;;;;;;5011896;28;20416;-68
2022/08/29 02:01:04;;;;;;;14.17;11.60;;;18.80;1.00;;;;;;5013486;28;20467;-68
2022/08/29 02:03:29;;;;;;;14.03;11.63;;;18.80;1.00;;;;;;5013320;28;20547;-68
2022/08/29 02:05:59;;;;;;;20.90;12.53;;;18.70;1.00;;;;;;5013326;28;20432;-67
2022/08/29 02:08:25;;;;;;;14.10;11.63;;;18.70;1.00;;;;;;5012985;28;20176;-67
2022/08/29 02:10:50;;;;;;;12.90;11.60;;;18.70;1.00;;;;;;5013320;28;20911;-67
2022/08/29 02:13:16;;;;;;;13.43;12.20;;;18.70;1.00;;;;;;5013202;28;20414;-68
2022/08/29 02:15:42;;;;;;;12.50;11.30;;;18.70;1.00;;;;;;5011858;28;20670;-68
2022/08/29 02:18:07;;;;;;;13.43;11.83;;;18.60;20.40;;;;;;5015463;28;20179;-68
2022/08/29 02:20:33;;;;;;;11.97;10.83;;;18.50;99.90;;;;;;5024087;28;20207;-68
2022/08/29 02:22:59;;;;;;;13.27;11.30;;;18.50;99.90;;;;;;5013021;28;20318;-68
2022/08/29 02:25:40;;;;;;;14.40;13.00;;;18.50;99.90;;;;;;5013117;28;20550;-68
2022/08/29 02:28:10;;;;;;;12.10;10.80;;;18.60;99.90;;;;;;5012780;28;20407;-68
2022/08/29 02:30:41;;;;;;;11.33;10.30;;;18.50;1.00;;;;;;5012949;28;20411;-68
2022/08/29 02:33:08;;;;;;;16.57;11.20;;;18.50;1.00;;;;;;5013169;28;20412;-70
2022/08/29 02:35:35;;;;;;;17.40;12.80;;;18.50;1.00;;;;;;5012767;28;20455;-69
2022/08/29 02:38:02;;;;;;;13.87;12.47;;;18.50;1.00;;;;;;5012701;28;20494;-69
2022/08/29 02:40:28;;;;;;;16.43;12.37;;;18.60;1.00;;;;;;5012892;28;20406;-68
2022/08/29 02:42:54;;;;;;;14.50;11.80;;;18.60;1.00;;;;;;5011260;28;20474;-68
2022/08/29 02:45:22;;;;;;;12.47;11.17;;;18.50;1.00;;;;;;5012695;28;20188;-68
2022/08/29 02:47:48;;;;;;;13.77;11.40;;;18.50;1.00;;;;;;5012601;28;20962;-69
2022/08/29 02:50:14;;;;;;;13.30;11.90;;;18.40;9.10;;;;;;5012725;28;20933;-68
2022/08/29 02:52:41;;;;;;;14.50;11.83;;;18.40;1.00;;;;;;5012601;28;20403;-69
2022/08/29 02:55:10;;;;;;;12.90;11.60;;;18.40;4.70;;;;;;5012287;28;20176;-68
2022/08/29 02:57:36;;;;;;;12.30;11.10;;;18.40;1.00;;;;;;5012321;28;20966;-68
2022/08/29 03:00:07;;;;;;;13.10;10.83;;;18.30;26.90;;;;;;5012445;28;20407;-68
2022/08/29 03:02:32;;;;;;;13.80;11.93;;;18.30;99.90;;;;;;5012242;28;20459;-67
2022/08/29 03:04:58;;;;;;;13.20;11.77;;;18.20;99.90;;;;;;5012451;28;20977;-68
2022/08/29 03:07:25;;;;;;;12.60;11.40;;;18.20;1.00;;;;;;5012218;28;20498;-68
2022/08/29 03:09:51;;;;;;;12.80;11.60;;;18.10;1.00;;;;;;5012219;28;20904;-68
2022/08/29 03:12:17;;;;;;;13.87;12.47;;;18.10;1.00;;;;;;5013295;28;20415;-71
2022/08/29 03:14:43;;;;;;;13.27;11.97;;;18.00;1.00;;;;;;5013715;28;20173;-71
2022/08/29 03:17:09;;;;;;;13.67;12.27;;;18.00;1.00;;;;;;5012890;28;20429;-69
2022/08/29 03:19:35;;;;;;;13.97;12.57;;;18.00;1.00;;;;;;5011924;28;20183;-68
2022/08/29 03:22:01;;;;;;;14.30;12.90;;;18.00;1.00;;;;;;5012300;28;20503;-67
2022/08/29 03:24:27;;;;;;;14.37;11.87;;;17.90;1.00;;;;;;5012228;28;20173;-68
2022/08/29 03:26:53;;;;;;;15.90;12.97;;;18.00;1.00;;;;;;5011655;28;20230;-67
2022/08/29 03:29:18;;;;;;;12.13;10.53;;;18.00;1.00;;;;;;5011943;28;20757;-68
2022/08/29 03:31:44;;;;;;;14.40;12.90;;;18.10;1.00;;;;;;5012164;28;20407;-68
2022/08/29 03:34:10;;;;;;;15.00;13.53;;;18.00;99.90;;;;;;5012090;28;20655;-69
2022/08/29 03:36:35;;;;;;;14.77;13.00;;;18.00;1.00;;;;;;5011827;28;20691;-66
2022/08/29 03:39:01;;;;;;;17.67;13.53;;;18.10;1.00;;;;;;5011676;28;20204;-68
2022/08/29 03:41:28;;;;;;;13.47;12.17;;;18.00;99.90;;;;;;5011977;28;20260;-68
2022/08/29 03:43:55;;;;;;;14.30;12.90;;;17.90;1.00;;;;;;5011471;28;20265;-68
2022/08/29 03:46:21;;;;;;;14.17;12.60;;;17.90;1.00;;;;;;5011505;28;20424;-68
2022/08/29 03:48:48;;;;;;;13.80;12.40;;;18.00;1.00;;;;;;5011194;28;20914;-69
2022/08/29 03:51:15;;;;;;;18.90;13.60;;;18.00;99.90;;;;;;5011546;28;20447;-68
2022/08/29 03:53:41;;;;;;;13.30;12.00;;;18.00;99.90;;;;;;5011251;28;21029;-68
2022/08/29 03:56:08;;;;;;;16.63;13.00;;;18.00;99.90;;;;;;5011265;28;20447;-68
2022/08/29 03:58:34;;;;;;;15.07;12.60;;;18.00;99.90;;;;;;5011319;28;20176;-67
2022/08/29 04:00:59;;;;;;;14.97;13.23;;;17.90;99.90;;;;;;5011345;28;20421;-69
2022/08/29 04:03:26;;;;;;;22.27;13.67;;;17.70;1.00;;;;;;5011696;28;20260;-69
2022/08/29 04:05:52;;;;;;;19.10;13.50;;;17.60;1.00;;;;;;5013170;28;20200;-70
2022/08/29 04:08:18;;;;;;;35.43;15.93;;;17.70;1.00;;;;;;5011490;28;20438;-68
2022/08/29 04:10:44;;;;;;;52.07;17.20;;;17.80;1.00;;;;;;5011384;28;20499;-69
2022/08/29 04:13:11;;;;;;;30.33;15.50;;;17.90;1.00;;;;;;5011112;28;20482;-68
2022/08/29 04:15:40;;;;;;;18.00;13.70;;;17.90;99.90;;;;;;5011006;28;20514;-68
2022/08/29 04:18:08;;;;;;;22.30;14.97;;;17.80;99.90;;;;;;5011191;28;20417;-68
2022/08/29 04:20:43;;;;;;;23.47;13.80;;;17.80;99.90;;;;;;5010978;28;20411;-68
2022/08/29 04:23:11;;;;;;;18.13;14.47;;;17.80;99.90;;;;;;5011055;28;20450;-68
2022/08/29 04:25:38;;;;;;;25.70;13.37;;;17.80;99.90;;;;;;5011079;28;20419;-69
2022/08/29 04:28:08;;;;;;;24.10;12.87;;;17.80;99.90;;;;;;5010872;28;20403;-69
2022/08/29 04:30:35;;;;;;;24.10;13.97;;;17.80;6.60;;;;;;5011297;28;20450;-68
2022/08/29 04:33:01;;;;;;;34.30;13.50;;;17.80;99.90;;;;;;5011098;28;20947;-68
2022/08/29 04:35:27;;;;;;;16.07;13.17;;;17.80;99.90;;;;;;5011102;28;20522;-68
2022/08/29 04:37:53;;;;;;;19.57;12.93;;;17.80;49.50;;;;;;5009507;28;20176;-67
2022/08/29 04:40:20;;;;;;;33.67;13.73;;;17.90;99.90;;;;;;5014996;28;20465;-67
2022/08/29 04:42:46;;;;;;;30.07;13.17;;;18.00;1.00;;;;;;5015022;28;20210;-67
2022/08/29 04:45:15;;;;;;;28.93;13.80;;;17.90;1.00;;;;;;5015245;28;20419;-68
2022/08/29 04:47:41;;;;;;;23.23;13.57;;;17.90;1.00;;;;;;5015373;28;20490;-66
2022/08/29 04:50:10;;;;;;;30.37;13.33;;;18.00;99.90;;;;;;5016986;28;20403;-69
2022/08/29 04:52:36;;;;;;;22.30;11.83;;;18.00;99.90;;;;;;5016035;28;20449;-69
2022/08/29 04:55:04;;;;;;;22.67;11.87;;;17.90;99.90;;;;;;5016596;28;20418;-70
2022/08/29 04:57:29;;;;;;;23.73;12.50;;;17.90;99.90;;;;;;5017369;28;20314;-71
2022/08/29 04:59:57;;;;;;;25.63;11.80;;;17.90;99.90;;;;;;5016868;28;20439;-71
2022/08/29 05:02:24;;;;;;;13.67;12.20;;;18.00;99.90;;;;;;5014892;28;20567;-71
2022/08/29 05:04:53;;;;;;;14.97;11.70;;;17.90;99.90;;;;;;5014630;28;20769;-70
2022/08/29 05:07:26;;;;;;;23.17;13.43;;;17.80;1.00;;;;;;5013960;28;20919;-71
2022/08/29 05:09:57;;;;;;;14.77;13.27;;;17.90;1.00;;;;;;5015167;28;20414;-70
2022/08/29 05:12:24;;;;;;;28.27;13.50;;;18.00;99.90;;;;;;5015482;28;20494;-71
2022/08/29 05:14:52;;;;;;;17.67;12.43;;;18.20;99.90;;;;;;5020362;28;20415;-70
2022/08/29 05:17:17;;;;;;;23.13;13.30;;;18.20;1.00;;;;;;5020052;28;20456;-70
2022/08/29 05:19:43;;;;;;;39.93;14.93;;;18.20;1.00;;;;;;5019747;28;20407;-71
2022/08/29 05:22:12;;;;;;;23.47;13.77;;;18.30;1.00;;;;;;5020678;28;20231;-69
2022/08/29 05:24:37;;;;;;;18.00;12.23;;;18.30;1.00;;;;;;5020891;28;20175;-70
2022/08/29 05:27:12;;;;;;;32.87;14.10;;;18.30;1.00;;;;;;5023015;28;20895;-68
2022/08/29 05:29:39;;;;;;;16.13;12.53;;;18.40;1.00;;;;;;5014358;28;20306;-70
2022/08/29 05:32:06;;;;;;;31.17;13.20;;;18.70;99.90;;;;;;5013131;28;20419;-71
2022/08/29 05:34:33;;;;;;;26.83;12.57;;;20.00;99.90;;;;;;5014848;28;20412;-70
2022/08/29 05:36:59;;;;;;;33.63;13.80;;;21.40;99.90;;;;;;5015254;28;20458;-70
2022/08/29 05:39:24;;;;;;;13.53;10.20;;;22.50;1.00;;;;;;5014732;28;20520;-71
2022/08/29 05:41:54;;;;;;;11.90;10.57;;;23.40;1.00;;;;;;5014533;28;20938;-71
2022/08/29 05:44:19;;;;;;;11.73;10.63;;;24.10;1.00;;;;;;5015533;28;20204;-69
2022/08/29 05:46:47;;;;;;;13.03;11.73;;;24.50;99.90;;;;;;5015563;28;20422;-71
2022/08/29 05:49:13;;;;;;;20.83;12.80;;;24.60;99.90;;;;;;5013824;28;20583;-69
2022/08/29 05:51:39;;;;;;;13.83;12.40;;;24.30;99.90;;;;;;5014799;28;20442;-69
2022/08/29 05:54:05;;;;;;;18.40;12.50;;;23.70;99.90;;;;;;5014272;28;20438;-69
2022/08/29 05:56:31;;;;;;;14.63;13.07;;;22.90;99.90;;;;;;5014290;28;20204;-68
2022/08/29 05:58:57;;;;;;;19.10;13.37;;;22.50;99.90;;;;;;5013384;28;20399;-68
2022/08/29 06:01:29;;;;;;;21.97;13.70;;;22.50;99.90;;;;;;5013460;28;20182;-68
2022/08/29 06:03:57;;;;;;;54.13;16.30;;;22.90;99.90;;;;;;5013312;28;20216;-68
2022/08/29 06:06:25;;;;;;;25.43;14.00;;;23.10;99.90;;;;;;5013161;28;20434;-68
2022/08/29 06:08:53;;;;;;;14.67;13.10;;;23.20;99.90;;;;;;5013252;28;20449;-68
2022/08/29 06:11:21;;;;;;;15.53;13.93;;;22.90;99.90;;;;;;5013373;28;20414;-68
2022/08/29 06:13:47;;;;;;;17.00;14.40;;;22.60;99.90;;;;;;5012925;28;20791;-68
2022/08/29 06:16:16;;;;;;;18.03;14.57;;;22.60;99.90;;;;;;5012940;28;20435;-68
2022/08/29 06:18:41;;;;;;;15.10;13.57;;;22.80;99.90;;;;;;5012580;28;20203;-68
2022/08/29 06:21:08;;;;;;;15.60;13.57;;;23.00;99.90;;;;;;5013099;28;20915;-70
2022/08/29 06:23:36;;;;;;;17.50;14.70;;;23.20;99.90;;;;;;5013216;28;20231;-71
2022/08/29 06:26:02;;;;;;;17.83;15.30;;;23.20;99.90;;;;;;5013049;28;20484;-70
2022/08/29 06:28:30;;;;;;;19.73;14.30;;;23.30;99.90;;;;;;5013197;28;20435;-70
2022/08/29 06:30:56;;;;;;;17.93;15.80;;;23.40;99.90;;;;;;5013062;28;20466;-71
2022/08/29 06:33:22;;;;;;;17.83;16.03;;;23.50;99.90;;;;;;5012902;28;20533;-71
2022/08/29 06:35:48;;;;;;;18.20;14.27;;;23.80;99.90;;;;;;5012856;28;20951;-68
2022/08/29 06:38:14;;;;;;;17.47;14.20;;;23.30;99.90;;;;;;5012449;28;20173;-68
2022/08/29 06:40:39;;;;;;;13.87;12.57;;;23.20;99.90;;;;;;5012588;28;20252;-69
2022/08/29 06:43:05;;;;;;;14.80;13.40;;;23.30;99.90;;;;;;5012400;28;20199;-70
2022/08/29 06:45:31;;;;;;;14.83;13.43;;;23.00;99.90;;;;;;5012554;28;20188;-71
2022/08/29 06:47:56;;;;;;;15.00;12.73;;;22.70;99.90;;;;;;5012196;28;20169;-69
2022/08/29 06:50:22;;;;;;;14.30;12.27;;;23.00;99.90;;;;;;5012843;28;20183;-70
2022/08/29 06:52:48;;;;;;;14.67;13.17;;;23.60;99.90;;;;;;5013032;28;20186;-70
2022/08/29 06:55:13;;;;;;;14.10;12.80;;;23.80;99.90;;;;;;5011974;28;20275;-70
2022/08/29 06:57:43;;;;;;;15.87;14.10;;;23.30;99.90;;;;;;5012350;28;20663;-70
2022/08/29 07:00:14;;;;;;;17.40;13.67;;;23.60;99.90;;;;;;5011989;28;20258;-70
2022/08/29 07:02:40;;;;;;;15.40;13.53;;;23.70;99.90;;;;;;5011543;28;20897;-69
2022/08/29 07:05:06;;;;;;;17.67;13.57;;;23.70;99.90;;;;;;5012102;28;20442;-70
2022/08/29 07:07:33;;;;;;;15.83;14.07;;;23.80;99.90;;;;;;5012090;28;20177;-70
2022/08/29 07:09:59;;;;;;;16.60;13.70;;;24.10;99.90;;;;;;5012145;28;20942;-69
2022/08/29 07:12:25;;;;;;;16.73;13.33;;;24.10;99.90;;;;;;5012087;28;20423;-70
2022/08/29 07:14:51;;;;;;;16.17;12.43;;;24.10;99.90;;;;;;5011890;28;20414;-70
2022/08/29 07:17:16;;;;;;;15.13;11.87;;;24.40;99.90;;;;;;5011843;28;20176;-70
2022/08/29 07:19:42;;;;;;;14.57;13.07;;;24.40;99.90;;;;;;5011807;28;20567;-70
2022/08/29 07:22:08;;;;;;;13.13;11.83;;;24.30;99.90;;;;;;5011996;28;20711;-70
2022/08/29 07:24:34;;;;;;;16.07;13.60;;;24.30;99.90;;;;;;5011841;28;20574;-70
2022/08/29 07:27:00;;;;;;;14.67;13.37;;;24.20;99.90;;;;;;5011717;28;20653;-70
2022/08/29 07:29:25;;;;;;;15.23;12.67;;;23.90;99.90;;;;;;5011692;28;20199;-69
2022/08/29 07:31:52;;;;;;;16.87;13.10;;;23.90;99.90;;;;;;5011943;28;20172;-69
2022/08/29 07:34:19;;;;;;;13.50;12.27;;;24.10;99.90;;;;;;5012352;28;20230;-70
2022/08/29 07:36:45;;;;;;;14.90;13.00;;;24.10;99.90;;;;;;5011950;28;20439;-71
2022/08/29 07:39:17;;;;;;;14.60;12.60;;;24.10;99.90;;;;;;5011945;28;20857;-70
2022/08/29 07:41:44;;;;;;;14.93;13.40;;;24.10;99.90;;;;;;5011580;28;20411;-70
2022/08/29 07:44:11;;;;;;;13.00;11.77;;;23.90;99.90;;;;;;5012280;28;20946;-70
2022/08/29 07:46:37;;;;;;;13.40;12.10;;;23.90;99.90;;;;;;5012129;28;20471;-69
2022/08/29 07:49:04;;;;;;;14.33;11.60;;;24.40;99.90;;;;;;5011702;28;20783;-70
2022/08/29 07:51:30;;;;;;;19.23;13.77;;;24.60;99.90;;;;;;5011990;28;20418;-69
2022/08/29 07:53:56;;;;;;;13.93;12.63;;;24.70;99.90;;;;;;5011237;28;20412;-68
2022/08/29 07:56:32;;;;;;;18.47;14.13;;;24.20;99.90;;;;;;5043290;23;20235;-67
2022/08/29 07:58:59;;;;;;;15.30;13.80;;;24.40;99.90;;;;;;5030633;28;20397;-67
2022/08/29 08:01:25;;;;;;;18.80;12.97;;;24.30;99.90;;;;;;5030831;28;20498;-68
2022/08/29 08:03:52;;;;;;;17.90;11.80;;;24.70;99.90;;;;;;5031403;28;20521;-68
2022/08/29 08:06:22;;;;;;;14.47;12.33;;;25.10;99.90;;;;;;5031411;28;20517;-68
2022/08/29 08:08:49;;;;;;;15.03;12.43;;;25.30;99.90;;;;;;5030827;28;20497;-67
2022/08/29 08:11:15;;;;;;;16.23;14.60;;;25.20;99.90;;;;;;5030636;28;20402;-67
2022/08/29 08:13:41;;;;;;;27.00;24.57;;;24.70;99.90;;;;;;5029853;28;20413;-67
2022/08/29 08:16:11;;;;;;;48.27;31.83;;;24.40;99.90;;;;;;5030499;28;20520;-67
2022/08/29 08:18:37;;;;;;;20.90;18.20;;;24.70;99.90;;;;;;5030311;28;20203;-68
2022/08/29 08:21:04;;;;;;;21.10;19.00;;;25.00;99.90;;;;;;5030633;28;20895;-67
2022/08/29 08:23:30;;;;;;;21.33;19.07;;;25.00;99.90;;;;;;5030621;28;20526;-68
2022/08/29 08:25:56;;;;;;;14.70;13.40;;;25.80;99.90;;;;;;5030392;28;20422;-68
2022/08/29 08:28:22;;;;;;;26.93;17.10;;;25.00;99.90;;;;;;5031215;28;20918;-67
2022/08/29 08:30:48;;;;;;;20.33;17.53;;;24.50;99.90;;;;;;5030481;28;20449;-68
2022/08/29 08:33:14;;;;;;;17.90;16.30;;;24.30;99.90;;;;;;5030514;28;20251;-68
2022/08/29 08:35:40;;;;;;;18.77;16.90;;;24.30;99.90;;;;;;5030527;28;20632;-68
2022/08/29 08:38:10;;;;;;;24.77;13.90;;;24.70;99.90;;;;;;5030516;28;20517;-68
2022/08/29 08:41:01;;;;;;;10.93;9.83;;;24.50;99.90;;;;;;5030523;28;20405;-67
2022/08/29 08:43:41;;;;;;;21.60;11.87;;;24.40;99.90;;;;;;5030009;28;20903;-68
2022/08/29 08:46:07;;;;;;;42.50;16.03;;;25.30;99.90;;;;;;5030152;28;20461;-70
2022/08/29 08:48:37;;;;;;;13.23;11.83;;;25.10;99.90;;;;;;5030146;28;20402;-68
2022/08/29 08:51:19;;;;;;;11.60;10.40;;;24.40;99.90;;;;;;5030647;28;20468;-68
2022/08/29 08:53:52;;;;;;;10.97;9.80;;;24.10;99.90;;;;;;5030578;28;20802;-68
2022/08/29 08:56:30;;;;;;;12.33;10.53;;;24.30;99.90;;;;;;5030121;28;20442;-68
2022/08/29 08:59:04;;;;;;;13.13;10.00;;;24.50;99.90;;;;;;5029882;28;20778;-68
2022/08/29 09:01:38;;;;;;;12.47;11.27;;;24.60;99.90;;;;;;5030118;28;20402;-68
2022/08/29 09:04:19;;;;;;;13.37;11.27;;;24.30;99.90;;;;;;5030176;28;20450;-67
2022/08/29 09:06:57;;;;;;;14.53;12.13;;;24.60;99.90;;;;;;5030027;28;20461;-68
2022/08/29 09:09:32;;;;;;;11.53;10.33;;;24.90;99.90;;;;;;5030151;28;20406;-68
2022/08/29 09:12:31;;;;;;;15.80;9.77;;;24.80;99.90;;;;;;5030204;28;20451;-68
2022/08/29 09:15:14;;;;;;;16.47;12.33;;;25.00;99.90;;;;;;5030263;28;20390;-68
2022/08/29 09:17:42;;;;;;;15.70;11.57;;;24.40;99.90;;;;;;5029831;28;20398;-67
2022/08/29 09:20:13;;;;;;;11.47;10.23;;;24.00;99.90;;;;;;5029846;28;20434;-68
2022/08/29 09:22:43;;;;;;;12.20;11.00;;;24.90;99.90;;;;;;5030391;28;20988;-68
2022/08/29 09:25:11;;;;;;;11.97;10.67;;;24.90;99.90;;;;;;5032115;28;20493;-68
2022/08/29 09:27:37;;;;;;;16.30;11.60;;;24.70;99.90;;;;;;5033485;28;20407;-68
2022/08/29 09:30:23;;;;;;;13.80;12.30;;;24.60;99.90;;;;;;5033626;28;20422;-66
2022/08/29 09:33:02;;;;;;;19.60;13.03;;;24.70;99.90;;;;;;5033447;28;20410;-66
2022/08/29 09:35:31;;;;;;;11.90;10.77;;;25.10;99.90;;;;;;5033427;28;20434;-67
2022/08/29 09:38:26;;;;;;;16.57;11.27;;;25.30;99.90;;;;;;5033293;28;20429;-67
2022/08/29 09:40:59;;;;;;;16.23;10.33;;;25.10;99.90;;;;;;5033519;28;20406;-68
2022/08/29 09:43:45;;;;;;;15.83;11.80;;;25.10;99.90;;;;;;5033449;28;20472;-67
2022/08/29 09:46:16;;;;;;;14.77;12.40;;;25.40;99.90;;;;;;5033363;28;20430;-68
2022/08/29 09:49:11;;;;;;;12.27;9.90;;;25.30;99.90;;;;;;5031724;28;20402;-68
2022/08/29 09:51:40;;;;;;;11.07;9.97;;;25.90;99.90;;;;;;5032256;28;20417;-68
2022/08/29 09:54:16;;;;;;;19.40;11.33;;;24.70;99.90;;;;;;5033238;28;20402;-68
2022/08/29 09:56:53;;;;;;;11.00;9.30;;;24.50;99.90;;;;;;5032704;28;20442;-67
2022/08/29 09:59:32;;;;;;;11.27;10.17;;;24.80;99.90;;;;;;5031552;28;20410;-67
2022/08/29 10:02:26;;;;;;;10.00;8.90;;;25.40;99.90;;;;;;5032887;28;20410;-67
2022/08/29 10:05:00;;;;;;;10.00;9.00;;;25.70;99.90;;;;;;5031548;28;20426;-67
2022/08/29 10:07:29;;;;;;;11.33;8.83;;;25.40;99.90;;;;;;5032530;28;20414;-67
2022/08/29 10:10:04;;;;;;;18.50;10.43;;;25.70;99.90;;;;;;5032639;28;21204;-68
2022/08/29 10:12:46;;;;;;;14.70;9.87;;;26.00;99.90;;;;;;5032700;28;20409;-67
2022/08/29 10:15:25;;;;;;;20.73;10.60;;;26.30;99.90;;;;;;5032670;28;20403;-68
2022/08/29 10:18:22;;;;;;;15.50;11.13;;;25.80;99.90;;;;;;5032668;28;20489;-68
2022/08/29 10:21:12;;;;;;;30.70;11.20;;;25.30;99.90;;;;;;5032413;28;20466;-68
2022/08/29 10:23:59;;;;;;;10.87;9.00;;;25.30;99.90;;;;;;5032660;28;20453;-68
2022/08/29 10:26:49;;;;;;;18.27;10.80;;;26.00;99.90;;;;;;5032563;28;20418;-68
2022/08/29 10:29:38;;;;;;;12.10;9.37;;;25.70;99.90;;;;;;5030803;28;20410;-68
2022/08/29 10:32:25;;;;;;;11.20;9.40;;;25.90;99.90;;;;;;5032368;28;20895;-68
2022/08/29 10:35:02;;;;;;;10.83;8.37;;;26.40;99.90;;;;;;5032244;28;20907;-68
2022/08/29 10:37:34;;;;;;;15.07;9.73;;;26.80;99.90;;;;;;5031196;28;20509;-68
2022/08/29 10:40:24;;;;;;;13.87;9.03;;;26.60;99.90;;;;;;5032225;28;20394;-70
2022/08/29 10:42:59;;;;;;;9.67;8.67;;;26.00;99.90;;;;;;5032106;28;20450;-68
2022/08/29 10:45:24;;;;;;;20.23;8.90;;;26.10;99.90;;;;;;5032241;28;20813;-68
2022/08/29 10:47:55;;;;;;;8.93;8.13;;;26.30;99.90;;;;;;5032037;28;20403;-68
2022/08/29 10:50:46;;;;;;;11.33;7.40;;;26.10;99.90;;;;;;5032065;28;20198;-68
2022/08/29 10:53:33;;;;;;;11.63;8.73;;;26.20;99.90;;;;;;5032433;28;20424;-68
2022/08/29 10:56:02;;;;;;;9.70;7.07;;;26.40;99.90;;;;;;5031884;28;20844;-68
2022/08/29 10:58:46;;;;;;;7.93;7.13;;;26.50;99.90;;;;;;5031921;28;20798;-68
2022/08/29 11:01:28;;;;;;;8.20;7.43;;;26.40;99.90;;;;;;5032206;28;20915;-68
2022/08/29 11:04:16;;;;;;;9.90;6.97;;;26.30;99.90;;;;;;5031900;28;20449;-68
2022/08/29 11:06:56;;;;;;;8.87;7.97;;;25.90;99.90;;;;;;5031633;28;20572;-68
2022/08/29 11:09:34;;;;;;;21.40;8.97;;;25.70;99.90;;;;;;5031555;28;20402;-67
2022/08/29 11:12:28;;;;;;;11.10;6.50;;;25.50;99.90;;;;;;5031851;28;20758;-68
2022/08/29 11:15:18;;;;;;;11.53;8.67;;;25.50;99.90;;;;;;5031457;28;20398;-68
2022/08/29 11:17:50;;;;;;;13.53;7.23;;;26.10;99.90;;;;;;5031262;28;20409;-68
2022/08/29 11:20:30;;;;;;;8.63;6.43;;;26.00;99.90;;;;;;5029891;28;20820;-68
2022/08/29 11:23:19;;;;;;;8.67;7.77;;;25.70;99.90;;;;;;5031755;28;20488;-67
2022/08/29 11:25:46;;;;;;;14.13;7.43;;;25.40;99.90;;;;;;5031408;28;20509;-68
2022/08/29 11:28:26;;;;;;;8.27;6.97;;;25.70;99.90;;;;;;5029659;28;20409;-68
2022/08/29 11:31:06;;;;;;;7.03;6.33;;;25.70;99.90;;;;;;5031386;28;20476;-68
2022/08/29 11:33:55;;;;;;;14.73;9.60;;;25.60;99.90;;;;;;5031257;28;20429;-68
2022/08/29 11:36:42;;;;;;;15.00;7.00;;;25.30;99.90;;;;;;5031137;28;20422;-68
2022/08/29 11:39:22;;;;;;;8.33;7.10;;;25.40;99.90;;;;;;5030923;28;20414;-68
2022/08/29 11:41:54;;;;;;;9.47;6.67;;;25.70;99.90;;;;;;5031313;28;20493;-68
2022/08/29 11:44:32;;;;;;;6.77;6.17;;;25.60;99.90;;;;;;5031352;28;20449;-68
2022/08/29 11:46:59;;;;;;;12.53;7.00;;;25.70;99.90;;;;;;5030877;28;20829;-68
2022/08/29 11:49:34;;;;;;;11.17;7.67;;;25.10;99.90;;;;;;5030764;28;20443;-68
2022/08/29 11:52:23;;;;;;;11.10;6.87;;;25.30;99.90;;;;;;5031010;28;20413;-68
2022/08/29 11:55:26;;;;;;;9.93;8.57;;;25.50;99.90;;;;;;5030903;28;20414;-68
2022/08/29 11:57:55;;;;;;;8.87;6.50;;;25.50;99.90;;;;;;5031098;28;20414;-68
2022/08/29 12:00:37;;;;;;;6.70;6.10;;;25.60;99.90;;;;;;5030872;28;20926;-68
2022/08/29 12:03:23;;;;;;;9.70;7.30;;;25.60;99.90;;;;;;5030969;28;20946;-68
2022/08/29 12:05:59;;;;;;;22.60;8.43;;;25.60;99.90;;;;;;5029306;28;20464;-68
2022/08/29 12:08:55;;;;;;;9.30;6.40;;;25.90;99.90;;;;;;5030380;28;20398;-67
2022/08/29 12:11:21;;;;;;;8.03;5.87;;;26.30;99.90;;;;;;5028232;28;20414;-67
2022/08/29 12:13:47;;;;;;;6.90;6.30;;;26.30;99.90;;;;;;5030641;28;20444;-67
2022/08/29 12:16:22;;;;;;;9.33;7.00;;;26.00;99.90;;;;;;5030711;28;20469;-68
2022/08/29 12:18:52;;;;;;;7.37;6.60;;;25.80;99.90;;;;;;5030325;28;20651;-68
2022/08/29 12:21:45;;;;;;;18.50;6.27;;;25.50;99.90;;;;;;5030538;28;20752;-68
2022/08/29 12:24:37;;;;;;;9.10;6.10;;;25.40;99.90;;;;;;5029617;28;20466;-69
2022/08/29 12:27:03;;;;;;;6.20;5.60;;;25.40;99.90;;;;;;5030336;28;20525;-67
2022/08/29 12:29:40;;;;;;;12.30;5.50;;;25.30;99.90;;;;;;5030277;28;20410;-68
2022/08/29 12:32:36;;;;;;;15.50;6.37;;;25.50;99.90;;;;;;5030536;28;20416;-68
2022/08/29 12:35:24;;;;;;;32.93;7.90;;;25.60;99.90;;;;;;5025631;28;20418;-68
2022/08/29 12:38:09;;;;;;;42.70;9.00;;;26.00;99.90;;;;;;5030184;28;20402;-69
2022/08/29 12:40:55;;;;;;;6.93;5.60;;;26.30;99.90;;;;;;5030488;28;20398;-69
2022/08/29 12:43:30;;;;;;;11.30;6.10;;;26.00;99.90;;;;;;5030232;28;20810;-68
2022/08/29 12:45:56;;;;;;;7.50;6.77;;;25.70;99.90;;;;;;5030658;28;20433;-69
2022/08/29 12:48:27;;;;;;;7.97;7.00;;;25.50;99.90;;;;;;5030324;28;20398;-69
2022/08/29 12:50:53;;;;;;;30.43;8.90;;;25.30;99.90;;;;;;5030413;28;20862;-68
2022/08/29 12:53:19;;;;;;;12.37;6.93;;;25.50;99.90;;;;;;5030256;28;20492;-68
2022/08/29 12:56:15;;;;;;;7.47;6.20;;;25.50;99.90;;;;;;5028736;28;20657;-68